Time;durP1;ratioP1;P1;durP2;ratioP2;P2;SDS_P1;SDS_P2;PMS_P1;PMS_P2;Temp;Humidity;BMP_temperature;BMP_pressure;BME280_temperature;BME280_humidity;BME280_pressure;Samples;Min_cycle;Max_cycle;Signal;HPM_P1;HPM_P2
2021/06/09 00:01:38;;;;;;;13.43;5.65;;;19.20;64.70;;;;;;5064821;28;20031;-71
2021/06/09 00:04:04;;;;;;;16.55;5.90;;;19.20;64.70;;;;;;5061879;28;20024;-70
2021/06/09 00:06:31;;;;;;;9.32;5.22;;;19.20;64.80;;;;;;5067913;28;20458;-70
2021/06/09 00:08:57;;;;;;;11.43;5.32;;;19.10;64.70;;;;;;5064511;28;20384;-70
2021/06/09 00:11:24;;;;;;;12.88;6.22;;;19.10;64.70;;;;;;5066000;28;20020;-70
2021/06/09 00:13:50;;;;;;;9.23;5.45;;;19.20;64.70;;;;;;5066755;28;20023;-70
2021/06/09 00:16:19;;;;;;;14.68;6.43;;;19.10;64.60;;;;;;5064901;28;20012;-70
2021/06/09 00:18:47;;;;;;;14.40;5.55;;;19.10;64.60;;;;;;5066709;28;20370;-70
2021/06/09 00:21:14;;;;;;;19.10;6.18;;;19.10;64.70;;;;;;5063128;28;20039;-70
2021/06/09 00:23:41;;;;;;;11.18;5.70;;;19.10;64.70;;;;;;5065301;28;20041;-70
2021/06/09 00:26:08;;;;;;;12.07;5.68;;;19.10;64.80;;;;;;5062718;28;20092;-70
2021/06/09 00:28:35;;;;;;;10.43;6.05;;;19.10;64.80;;;;;;5066933;28;20029;-71
2021/06/09 00:31:06;;;;;;;8.82;5.90;;;19.10;64.80;;;;;;5066232;28;20032;-70
2021/06/09 00:33:34;;;;;;;11.98;5.40;;;19.10;64.80;;;;;;5064793;28;20472;-70
2021/06/09 00:36:00;;;;;;;15.65;6.57;;;19.00;64.80;;;;;;5066231;28;20050;-70
2021/06/09 00:38:28;;;;;;;10.32;5.65;;;19.00;64.80;;;;;;5064993;28;20050;-70
2021/06/09 00:40:59;;;;;;;10.75;5.93;;;19.00;64.80;;;;;;5064904;28;20085;-70
2021/06/09 00:43:27;;;;;;;13.10;5.55;;;19.00;64.90;;;;;;5064868;28;20036;-70
2021/06/09 00:46:03;;;;;;;9.23;5.75;;;19.00;64.80;;;;;;5069806;28;20024;-70
2021/06/09 00:48:32;;;;;;;9.93;6.10;;;19.00;64.80;;;;;;5068334;28;20028;-70
2021/06/09 00:51:01;;;;;;;15.32;6.43;;;19.00;64.90;;;;;;5067705;28;20379;-70
2021/06/09 00:53:33;;;;;;;17.40;6.53;;;19.00;65.10;;;;;;5068615;28;20051;-70
2021/06/09 00:56:03;;;;;;;15.45;7.35;;;19.00;65.40;;;;;;5066855;28;20023;-70
2021/06/09 00:58:30;;;;;;;12.77;6.00;;;19.00;65.60;;;;;;5069902;28;20467;-70
2021/06/09 01:00:57;;;;;;;16.10;7.35;;;19.00;65.80;;;;;;5066800;28;20428;-70
2021/06/09 01:03:24;;;;;;;18.70;7.35;;;19.00;65.90;;;;;;5070084;28;20032;-70
2021/06/09 01:05:51;;;;;;;16.13;6.78;;;19.00;66.00;;;;;;5068708;28;20019;-70
2021/06/09 01:08:17;;;;;;;25.38;8.07;;;18.90;66.10;;;;;;5066395;28;20028;-70
2021/06/09 01:10:47;;;;;;;19.73;7.45;;;18.90;66.20;;;;;;5067366;28;20028;-70
2021/06/09 01:13:14;;;;;;;20.30;6.85;;;18.90;66.30;;;;;;5064078;28;20024;-70
2021/06/09 01:15:41;;;;;;;18.83;7.40;;;18.90;66.40;;;;;;5068742;28;20020;-70
2021/06/09 01:18:08;;;;;;;25.27;7.00;;;18.90;66.40;;;;;;5067193;28;20078;-70
2021/06/09 01:20:36;;;;;;;20.63;7.15;;;18.90;66.40;;;;;;5069613;28;20032;-70
2021/06/09 01:23:04;;;;;;;18.33;7.55;;;18.90;66.40;;;;;;5066708;28;20036;-70
2021/06/09 01:25:31;;;;;;;19.95;6.90;;;18.90;66.40;;;;;;5068554;28;20044;-70
2021/06/09 01:27:57;;;;;;;22.42;7.07;;;18.90;66.30;;;;;;5068967;28;20107;-70
2021/06/09 01:30:24;;;;;;;18.05;7.25;;;18.90;66.30;;;;;;5066940;28;20560;-70
2021/06/09 01:32:52;;;;;;;14.68;7.00;;;18.80;66.30;;;;;;5067992;28;20103;-70
2021/06/09 01:35:19;;;;;;;19.38;7.13;;;18.90;66.30;;;;;;5068636;28;20029;-70
2021/06/09 01:37:46;;;;;;;17.73;7.28;;;18.80;66.20;;;;;;5068213;28;20028;-70
2021/06/09 01:40:19;;;;;;;18.25;7.85;;;18.80;66.20;;;;;;5066848;28;20055;-70
2021/06/09 01:42:46;;;;;;;12.85;6.10;;;18.80;66.30;;;;;;5068437;28;20040;-70
2021/06/09 01:45:17;;;;;;;24.98;7.50;;;18.80;66.30;;;;;;5067960;28;20393;-70
2021/06/09 01:47:43;;;;;;;21.73;9.02;;;18.80;66.40;;;;;;5067364;28;20089;-70
2021/06/09 01:50:12;;;;;;;19.55;7.43;;;18.80;66.50;;;;;;5065208;28;20108;-70
2021/06/09 01:52:40;;;;;;;18.35;7.78;;;18.80;66.60;;;;;;5066432;28;20387;-70
2021/06/09 01:55:09;;;;;;;17.85;7.35;;;18.70;66.90;;;;;;5065587;28;20424;-70
2021/06/09 01:57:36;;;;;;;13.68;7.28;;;18.70;67.10;;;;;;5066590;28;20012;-70
2021/06/09 02:00:08;;;;;;;14.82;6.32;;;18.70;67.30;;;;;;5066101;28;20047;-70
2021/06/09 02:02:35;;;;;;;14.60;6.43;;;18.70;67.60;;;;;;5067596;28;20025;-70
2021/06/09 02:05:04;;;;;;;17.05;6.57;;;18.70;67.90;;;;;;5066752;28;20012;-70
2021/06/09 02:07:35;;;;;;;16.92;7.53;;;18.70;68.00;;;;;;5065612;28;20383;-70
2021/06/09 02:10:06;;;;;;;20.15;6.53;;;18.70;68.10;;;;;;5067487;28;20012;-70
2021/06/09 02:12:34;;;;;;;12.73;7.00;;;18.70;68.30;;;;;;5069173;28;20062;-70
2021/06/09 02:15:00;;;;;;;19.42;6.95;;;18.70;69.20;;;;;;5068758;28;20475;-70
2021/06/09 02:17:27;;;;;;;13.73;6.15;;;18.70;68.50;;;;;;5065712;28;20048;-70
2021/06/09 02:19:54;;;;;;;16.83;6.90;;;18.70;68.70;;;;;;5068909;28;20019;-70
2021/06/09 02:22:20;;;;;;;14.27;6.45;;;18.70;68.90;;;;;;5065596;28;20036;-70
2021/06/09 02:24:47;;;;;;;18.48;8.38;;;18.70;69.60;;;;;;5068844;28;20103;-69
2021/06/09 02:27:14;;;;;;;17.27;7.00;;;18.70;69.10;;;;;;5064591;28;20021;-70
2021/06/09 02:29:40;;;;;;;18.45;7.35;;;18.70;69.20;;;;;;5066977;28;20020;-70
2021/06/09 02:32:07;;;;;;;17.38;7.10;;;18.70;69.30;;;;;;5066928;28;20063;-70
2021/06/09 02:34:37;;;;;;;15.55;6.57;;;18.70;69.30;;;;;;5068263;28;20013;-70
2021/06/09 02:37:04;;;;;;;17.50;7.65;;;18.60;69.20;;;;;;5068302;28;20042;-70
2021/06/09 02:39:31;;;;;;;16.15;7.97;;;18.60;69.90;;;;;;5066221;28;20148;-70
2021/06/09 02:41:57;;;;;;;19.73;9.73;;;18.60;69.20;;;;;;5064632;28;20477;-70
2021/06/09 02:44:24;;;;;;;15.85;9.20;;;18.60;69.20;;;;;;5066875;28;20039;-70
2021/06/09 02:46:54;;;;;;;20.95;7.90;;;18.60;69.20;;;;;;5064994;28;20107;-70
2021/06/09 02:49:26;;;;;;;20.35;9.60;;;18.60;69.10;;;;;;5063935;28;20107;-70
2021/06/09 02:52:11;;;;;;;18.02;7.97;;;18.60;69.10;;;;;;5065374;28;20020;-70
2021/06/09 02:54:48;;;;;;;18.88;8.00;;;18.60;69.00;;;;;;5066245;28;20371;-70
2021/06/09 02:57:39;;;;;;;16.15;7.38;;;18.50;68.90;;;;;;5066103;28;20064;-70
2021/06/09 03:00:15;;;;;;;18.48;7.78;;;18.50;68.90;;;;;;5065868;28;20474;-70
2021/06/09 03:03:21;;;;;;;16.85;9.32;;;18.50;69.00;;;;;;5063782;28;20388;-70
2021/06/09 03:05:59;;;;;;;36.08;22.80;;;18.50;69.00;;;;;;5057123;28;20102;-70
2021/06/09 03:08:38;;;;;;;35.80;21.88;;;18.50;68.90;;;;;;5062987;28;20024;-69
2021/06/09 03:11:24;;;;;;;24.10;15.70;;;18.50;68.90;;;;;;5065456;28;20025;-70
2021/06/09 03:15:09;;;;;;;26.88;13.88;;;18.50;69.00;;;;;;5066472;28;20055;-70
2021/06/09 03:17:19;;;;;;;24.52;10.25;;;18.50;68.90;;;;;;5062151;28;20041;-70
2021/06/09 03:20:18;;;;;;;19.50;9.95;;;18.40;68.80;;;;;;5064837;28;20035;-70
2021/06/09 03:23:00;;;;;;;16.13;8.93;;;18.50;68.90;;;;;;5045627;28;20041;-70
2021/06/09 03:25:38;;;;;;;20.52;7.93;;;18.40;68.80;;;;;;5065254;28;20016;-70
2021/06/09 03:28:18;;;;;;;17.80;8.52;;;18.40;68.70;;;;;;5065253;28;20032;-70
2021/06/09 03:30:56;;;;;;;16.45;7.50;;;18.40;68.70;;;;;;5062705;28;20049;-70
2021/06/09 03:33:27;;;;;;;16.33;7.97;;;18.40;68.70;;;;;;5066356;28;20077;-70
2021/06/09 03:36:01;;;;;;;18.00;7.68;;;18.40;68.60;;;;;;5061622;28;20017;-70
2021/06/09 03:38:58;;;;;;;17.23;8.60;;;18.40;68.50;;;;;;5064940;28;20375;-70
2021/06/09 03:41:47;;;;;;;19.13;7.35;;;18.40;68.50;;;;;;5065681;28;20490;-70
2021/06/09 03:44:19;;;;;;;15.93;7.95;;;18.40;68.40;;;;;;5064346;28;20530;-70
2021/06/09 03:46:47;;;;;;;19.55;11.73;;;18.30;68.30;;;;;;5064501;28;20029;-70
2021/06/09 03:49:17;;;;;;;20.67;11.82;;;18.30;68.30;;;;;;5063800;28;20059;-69
2021/06/09 03:51:44;;;;;;;30.13;14.85;;;18.30;68.30;;;;;;5066961;28;20371;-69
2021/06/09 03:54:12;;;;;;;28.33;12.75;;;18.30;68.20;;;;;;5065551;28;20021;-69
2021/06/09 03:56:42;;;;;;;20.88;10.63;;;18.30;68.10;;;;;;5064328;28;20016;-69
2021/06/09 03:59:10;;;;;;;17.75;9.05;;;18.30;68.20;;;;;;5064841;28;20028;-70
2021/06/09 04:01:40;;;;;;;13.63;8.10;;;18.30;68.10;;;;;;5063326;28;20017;-71
2021/06/09 04:04:08;;;;;;;17.95;8.48;;;18.30;68.10;;;;;;5065573;28;20542;-70
2021/06/09 04:06:39;;;;;;;14.38;6.32;;;18.30;68.00;;;;;;5063915;28;20016;-71
2021/06/09 04:09:07;;;;;;;15.65;7.00;;;18.20;67.90;;;;;;5065819;28;20032;-72
2021/06/09 04:11:36;;;;;;;11.82;7.20;;;18.20;67.90;;;;;;5064579;28;20506;-73
2021/06/09 04:14:05;;;;;;;16.50;9.00;;;18.20;67.90;;;;;;5078841;28;20028;-71
2021/06/09 04:16:35;;;;;;;22.33;13.88;;;18.20;68.00;;;;;;5065329;28;20020;-74
2021/06/09 04:19:04;;;;;;;18.63;10.85;;;18.20;68.10;;;;;;5064985;28;20029;-73
2021/06/09 04:21:31;;;;;;;16.75;10.20;;;18.20;68.30;;;;;;5063478;28;20017;-70
2021/06/09 04:23:58;;;;;;;16.80;9.95;;;18.20;68.40;;;;;;5063513;28;20044;-71
2021/06/09 04:27:04;;;;;;;20.65;9.43;;;18.10;68.40;;;;;;5065319;28;20086;-69
2021/06/09 04:30:10;;;;;;;12.40;8.65;;;18.10;68.50;;;;;;5065667;28;20025;-73
2021/06/09 04:33:35;;;;;;;20.83;15.93;;;18.10;68.40;;;;;;5064369;28;20025;-70
2021/06/09 04:36:41;;;;;;;22.95;12.90;;;18.10;68.40;;;;;;5063103;28;20465;-70
2021/06/09 04:39:47;;;;;;;17.08;12.13;;;18.10;68.30;;;;;;5066357;28;20403;-72
2021/06/09 04:42:53;;;;;;;17.02;11.20;;;18.10;68.30;;;;;;5066080;28;20032;-70
2021/06/09 04:45:21;;;;;;;15.63;11.73;;;18.10;68.20;;;;;;5063005;28;20190;-73
2021/06/09 04:48:11;;;;;;;31.95;23.08;;;18.10;68.00;;;;;;5064346;28;20146;-70
2021/06/09 04:50:39;;;;;;;32.90;24.52;;;18.00;67.90;;;;;;5063503;28;20056;-72
2021/06/09 04:53:11;;;;;;;28.40;21.50;;;18.00;67.90;;;;;;5063613;28;20040;-72
2021/06/09 04:55:40;;;;;;;30.00;15.75;;;18.00;67.80;;;;;;5062365;28;20044;-71
2021/06/09 04:58:06;;;;;;;21.65;13.52;;;18.00;67.80;;;;;;5063589;28;20104;-72
2021/06/09 05:00:33;;;;;;;16.77;11.45;;;18.00;67.80;;;;;;5064230;28;20024;-72
2021/06/09 05:03:01;;;;;;;19.00;10.63;;;18.00;67.70;;;;;;5062345;28;20029;-71
2021/06/09 05:05:29;;;;;;;15.02;10.52;;;18.00;67.70;;;;;;5063708;28;20028;-71
2021/06/09 05:07:56;;;;;;;19.15;12.20;;;18.00;67.60;;;;;;5062603;28;20506;-71
2021/06/09 05:11:02;;;;;;;17.17;9.98;;;18.00;67.60;;;;;;5063721;28;20043;-72
2021/06/09 05:14:11;;;;;;;17.33;9.50;;;17.90;67.50;;;;;;5063159;28;20106;-71
2021/06/09 05:17:18;;;;;;;18.85;9.32;;;17.90;67.50;;;;;;5060918;28;20544;-71
2021/06/09 05:19:46;;;;;;;13.90;9.57;;;17.90;67.40;;;;;;5063289;28;20060;-71
2021/06/09 05:22:24;;;;;;;19.83;8.68;;;17.90;67.40;;;;;;5062273;28;20395;-71
2021/06/09 05:24:52;;;;;;;17.35;9.73;;;17.90;67.30;;;;;;5062627;28;20059;-72
2021/06/09 05:27:22;;;;;;;15.75;8.63;;;17.90;67.30;;;;;;5064690;28;20025;-71
2021/06/09 05:30:28;;;;;;;13.63;9.43;;;17.90;67.30;;;;;;5057441;28;20017;-72
2021/06/09 05:32:57;;;;;;;13.88;9.45;;;17.80;67.20;;;;;;5063886;28;20064;-72
2021/06/09 05:35:24;;;;;;;24.75;15.07;;;17.80;67.30;;;;;;5063902;28;20399;-71
2021/06/09 05:37:51;;;;;;;23.77;16.20;;;17.80;67.30;;;;;;5066378;28;20497;-71
2021/06/09 05:40:20;;;;;;;20.52;15.43;;;17.80;67.30;;;;;;5066442;28;20049;-71
2021/06/09 05:42:47;;;;;;;17.83;12.48;;;17.80;67.30;;;;;;5063564;28;20064;-71
2021/06/09 05:45:15;;;;;;;19.00;10.40;;;17.80;67.30;;;;;;5065756;28;20480;-71
2021/06/09 05:47:45;;;;;;;15.63;10.05;;;17.80;67.30;;;;;;5067414;28;20024;-72
2021/06/09 05:50:20;;;;;;;13.13;9.57;;;17.70;67.30;;;;;;5066527;28;20112;-72
2021/06/09 05:52:49;;;;;;;16.23;10.57;;;17.80;67.20;;;;;;5065904;28;20149;-72
2021/06/09 05:55:24;;;;;;;18.42;9.50;;;17.70;67.20;;;;;;5064402;28;20024;-71
2021/06/09 05:57:51;;;;;;;14.73;9.55;;;17.70;67.20;;;;;;5065187;28;20396;-73
2021/06/09 06:00:21;;;;;;;13.98;9.48;;;17.70;67.30;;;;;;5065378;28;20483;-69
2021/06/09 06:02:48;;;;;;;18.85;10.68;;;17.70;67.30;;;;;;5063391;28;20055;-70
2021/06/09 06:05:16;;;;;;;20.05;10.40;;;17.70;67.30;;;;;;5066032;28;20151;-71
2021/06/09 06:07:43;;;;;;;15.30;9.52;;;17.70;67.30;;;;;;5065038;28;20053;-70
2021/06/09 06:10:11;;;;;;;18.58;9.90;;;17.70;67.30;;;;;;5067399;28;20058;-71
2021/06/09 06:12:39;;;;;;;16.08;9.98;;;17.70;67.30;;;;;;5062778;28;20017;-71
2021/06/09 06:15:07;;;;;;;17.30;10.25;;;17.70;67.30;;;;;;5066813;28;20021;-71
2021/06/09 06:17:38;;;;;;;16.08;10.90;;;17.70;67.40;;;;;;5065755;28;20020;-71
2021/06/09 06:20:12;;;;;;;15.48;9.43;;;17.70;67.40;;;;;;5065835;28;20044;-71
2021/06/09 06:22:39;;;;;;;15.55;10.68;;;17.60;67.40;;;;;;5064515;28;20029;-71
2021/06/09 06:25:06;;;;;;;15.75;9.90;;;17.60;67.50;;;;;;5064142;28;20024;-71
2021/06/09 06:27:34;;;;;;;16.85;10.27;;;17.70;67.60;;;;;;5065734;28;20024;-72
2021/06/09 06:30:02;;;;;;;20.70;10.82;;;17.60;67.60;;;;;;5064957;28;20039;-72
2021/06/09 06:32:29;;;;;;;15.40;9.57;;;17.60;67.70;;;;;;5066251;28;20128;-70
2021/06/09 06:34:57;;;;;;;18.95;9.00;;;17.60;67.80;;;;;;5061353;28;20025;-70
2021/06/09 06:37:26;;;;;;;17.95;9.85;;;17.60;67.90;;;;;;5064449;28;20937;-71
2021/06/09 06:39:54;;;;;;;18.48;11.68;;;17.60;67.90;;;;;;5067121;28;20143;-72
2021/06/09 06:42:21;;;;;;;20.35;14.32;;;17.60;68.10;;;;;;5062577;28;20036;-72
2021/06/09 06:44:49;;;;;;;23.13;16.50;;;17.60;68.20;;;;;;5065790;28;20620;-71
2021/06/09 06:47:18;;;;;;;21.15;14.93;;;17.60;68.30;;;;;;5064201;28;20379;-71
2021/06/09 06:49:50;;;;;;;25.15;15.48;;;17.60;68.50;;;;;;5060926;28;20032;-73
2021/06/09 06:52:18;;;;;;;19.27;14.52;;;17.60;68.70;;;;;;5060552;28;20541;-72
2021/06/09 06:54:46;;;;;;;20.45;13.52;;;17.60;68.80;;;;;;5063166;28;20044;-71
2021/06/09 06:57:15;;;;;;;19.92;13.13;;;17.60;69.00;;;;;;5065828;28;20499;-70
2021/06/09 06:59:43;;;;;;;21.63;13.80;;;17.60;69.10;;;;;;5063768;28;20017;-72
2021/06/09 07:02:13;;;;;;;23.85;13.63;;;17.70;69.30;;;;;;5063330;28;20032;-71
2021/06/09 07:04:41;;;;;;;26.88;13.43;;;17.70;69.50;;;;;;5063006;28;20399;-72
2021/06/09 07:07:08;;;;;;;24.58;14.40;;;17.70;69.70;;;;;;5065200;28;20012;-72
2021/06/09 07:09:36;;;;;;;24.27;15.48;;;17.70;69.80;;;;;;5065228;28;20019;-71
2021/06/09 07:12:05;;;;;;;24.90;14.05;;;17.70;70.00;;;;;;5061394;28;20025;-70
2021/06/09 07:14:35;;;;;;;26.92;16.90;;;17.70;70.10;;;;;;5063580;28;20016;-71
2021/06/09 07:17:04;;;;;;;40.03;24.55;;;17.70;70.20;;;;;;5062381;28;20029;-72
2021/06/09 07:19:31;;;;;;;42.53;26.80;;;17.70;70.40;;;;;;5063557;28;20028;-70
2021/06/09 07:21:58;;;;;;;27.38;20.67;;;17.70;70.60;;;;;;5060695;28;21459;-71
2021/06/09 07:24:41;;;;;;;31.88;19.63;;;17.80;70.80;;;;;;5063490;28;20056;-71
2021/06/09 07:27:10;;;;;;;28.95;20.17;;;17.80;71.00;;;;;;5062433;28;20546;-70
2021/06/09 07:29:40;;;;;;;32.53;20.83;;;17.80;71.10;;;;;;5063125;28;20048;-72
2021/06/09 07:32:08;;;;;;;27.80;19.48;;;17.80;71.20;;;;;;5060281;28;20090;-73
2021/06/09 07:34:43;;;;;;;32.63;21.05;;;17.80;71.20;;;;;;5061091;28;20554;-72
2021/06/09 07:37:14;;;;;;;53.88;34.13;;;17.80;71.20;;;;;;5061668;28;20052;-73
2021/06/09 07:39:58;;;;;;;41.28;28.25;;;17.90;71.30;;;;;;5093392;28;20041;-74
2021/06/09 07:42:27;;;;;;;35.65;25.77;;;17.80;71.50;;;;;;5062376;28;20141;-71
2021/06/09 07:45:01;;;;;;;39.97;25.60;;;17.80;71.60;;;;;;5060543;28;20033;-71
2021/06/09 07:47:29;;;;;;;29.88;22.33;;;17.90;71.70;;;;;;5061066;28;20391;-72
2021/06/09 07:49:58;;;;;;;34.22;21.77;;;17.90;71.70;;;;;;5064039;28;20042;-70
2021/06/09 07:52:26;;;;;;;33.47;20.80;;;18.00;72.30;;;;;;5058187;28;20517;-72
2021/06/09 07:55:03;;;;;;;31.08;20.50;;;18.00;71.70;;;;;;5063670;28;20027;-71
2021/06/09 07:57:36;;;;;;;40.00;24.65;;;18.00;71.70;;;;;;5062822;28;20036;-72
2021/06/09 08:00:11;;;;;;;42.55;27.05;;;18.00;71.60;;;;;;5061169;28;20044;-71
2021/06/09 08:02:43;;;;;;;40.20;26.67;;;18.10;71.70;;;;;;5062094;28;20036;-72
2021/06/09 08:05:12;;;;;;;38.85;24.13;;;18.10;71.70;;;;;;5060567;28;20028;-71
2021/06/09 08:07:40;;;;;;;39.10;22.13;;;18.10;71.80;;;;;;5060100;28;20024;-72
2021/06/09 08:10:11;;;;;;;36.80;22.00;;;18.20;71.90;;;;;;5063774;28;20031;-71
2021/06/09 08:12:39;;;;;;;37.95;21.40;;;18.20;71.90;;;;;;5059234;28;20032;-72
2021/06/09 08:15:13;;;;;;;34.13;21.58;;;18.20;71.90;;;;;;5062846;28;20021;-71
2021/06/09 08:17:45;;;;;;;34.22;20.08;;;18.20;72.00;;;;;;5063034;28;21646;-70
2021/06/09 08:20:19;;;;;;;30.65;21.17;;;18.30;72.00;;;;;;5063434;28;20029;-70
2021/06/09 08:22:47;;;;;;;26.73;20.05;;;18.30;72.00;;;;;;5063798;28;20028;-70
2021/06/09 08:25:16;;;;;;;31.17;19.67;;;18.30;72.30;;;;;;5060996;28;20021;-70
2021/06/09 08:27:43;;;;;;;33.13;19.98;;;18.40;72.10;;;;;;5062167;28;20107;-70
2021/06/09 08:30:12;;;;;;;30.08;18.88;;;18.40;72.10;;;;;;5061982;28;20426;-71
2021/06/09 08:32:39;;;;;;;29.48;19.50;;;18.50;72.10;;;;;;5061237;28;20021;-70
2021/06/09 08:35:07;;;;;;;27.88;19.73;;;18.50;72.20;;;;;;5061607;28;20024;-70
2021/06/09 08:37:35;;;;;;;33.67;21.02;;;18.50;72.10;;;;;;5062365;28;20020;-70
2021/06/09 08:40:06;;;;;;;33.83;21.65;;;18.50;72.10;;;;;;5060637;28;20056;-70
2021/06/09 08:42:36;;;;;;;34.35;22.02;;;18.60;72.10;;;;;;5061738;28;20032;-70
2021/06/09 08:45:06;;;;;;;39.13;22.85;;;18.60;72.10;;;;;;5062599;28;20017;-71
2021/06/09 08:47:35;;;;;;;32.42;20.42;;;18.70;72.20;;;;;;5061066;28;20499;-71
2021/06/09 08:50:05;;;;;;;34.65;21.02;;;18.70;72.20;;;;;;5061234;28;20116;-70
2021/06/09 08:52:33;;;;;;;32.85;21.42;;;18.70;72.10;;;;;;5058907;28;20036;-70
2021/06/09 08:55:01;;;;;;;31.40;21.35;;;18.80;72.20;;;;;;5063389;28;20032;-70
2021/06/09 08:57:31;;;;;;;34.55;21.00;;;18.80;72.20;;;;;;5062199;28;20074;-69
2021/06/09 08:59:59;;;;;;;34.25;24.50;;;18.80;72.20;;;;;;5060922;28;20028;-69
2021/06/09 09:02:26;;;;;;;33.90;23.60;;;18.90;72.30;;;;;;5059863;28;20506;-69
2021/06/09 09:05:10;;;;;;;37.90;24.55;;;19.00;72.40;;;;;;5061285;28;20028;-69
2021/06/09 09:07:38;;;;;;;33.15;22.88;;;19.00;72.30;;;;;;5064909;28;20032;-69
2021/06/09 09:10:09;;;;;;;36.42;22.17;;;19.00;72.30;;;;;;5066012;28;20077;-69
2021/06/09 09:12:36;;;;;;;32.60;22.40;;;19.00;72.30;;;;;;5065660;28;20024;-70
2021/06/09 09:15:16;;;;;;;30.10;21.05;;;19.10;72.40;;;;;;5064258;28;20471;-71
2021/06/09 09:17:51;;;;;;;27.85;18.20;;;19.20;72.60;;;;;;5063875;28;20375;-70
2021/06/09 09:20:25;;;;;;;35.25;19.10;;;19.20;72.90;;;;;;5067571;28;20035;-70
2021/06/09 09:22:57;;;;;;;32.97;16.30;;;19.20;73.10;;;;;;5065250;28;21721;-69
2021/06/09 09:25:26;;;;;;;26.40;15.15;;;19.30;73.30;;;;;;5067701;28;20395;-70
2021/06/09 09:28:01;;;;;;;19.50;12.68;;;19.30;73.70;;;;;;5065698;28;20112;-70
2021/06/09 09:30:31;;;;;;;24.30;13.38;;;19.40;74.00;;;;;;5061242;28;20033;-70
2021/06/09 09:33:10;;;;;;;23.98;13.40;;;19.40;74.20;;;;;;5067206;28;20027;-70
2021/06/09 09:35:39;;;;;;;23.58;12.80;;;19.40;74.30;;;;;;5062051;28;20386;-71
2021/06/09 09:38:31;;;;;;;18.65;12.23;;;19.50;74.60;;;;;;5066166;28;20890;-71
2021/06/09 09:41:12;;;;;;;23.65;12.38;;;19.50;74.60;;;;;;5064199;28;20501;-70
2021/06/09 09:43:56;;;;;;;25.15;12.10;;;19.50;74.80;;;;;;5075390;28;20505;-71
2021/06/09 09:46:49;;;;;;;22.40;12.38;;;19.60;74.80;;;;;;5065421;28;20467;-70
2021/06/09 09:49:18;;;;;;;21.95;12.07;;;19.60;74.90;;;;;;5066275;28;20032;-69
2021/06/09 09:51:46;;;;;;;25.42;11.75;;;19.70;74.90;;;;;;5064114;28;20012;-70
2021/06/09 09:54:14;;;;;;;26.38;12.35;;;19.70;74.70;;;;;;5065225;28;20554;-70
2021/06/09 09:56:41;;;;;;;27.73;12.65;;;19.80;74.60;;;;;;5061388;28;20013;-70
2021/06/09 09:59:12;;;;;;;26.63;12.15;;;19.80;74.50;;;;;;5066798;28;20119;-70
2021/06/09 10:01:53;;;;;;;27.80;12.18;;;19.80;74.20;;;;;;5061207;28;20231;-71
2021/06/09 10:04:25;;;;;;;24.40;13.80;;;19.90;74.00;;;;;;5065662;28;20120;-72
2021/06/09 10:06:52;;;;;;;25.67;11.63;;;19.90;73.80;;;;;;5065085;28;20028;-71
2021/06/09 10:09:24;;;;;;;23.65;11.93;;;20.00;73.70;;;;;;5065286;28;20111;-71
2021/06/09 10:11:53;;;;;;;21.10;10.55;;;20.00;73.30;;;;;;5065723;28;20495;-71
2021/06/09 10:14:35;;;;;;;32.53;13.77;;;20.10;73.10;;;;;;5064143;28;20104;-71
2021/06/09 10:17:11;;;;;;;25.48;12.10;;;20.10;72.80;;;;;;5065843;28;20025;-73
2021/06/09 10:19:44;;;;;;;24.55;13.48;;;20.20;72.60;;;;;;5065188;28;20032;-71
2021/06/09 10:22:13;;;;;;;26.30;12.68;;;20.20;72.30;;;;;;5065372;28;20495;-71
2021/06/09 10:25:05;;;;;;;25.13;12.95;;;20.30;72.10;;;;;;5064289;28;20019;-70
2021/06/09 10:27:39;;;;;;;21.48;12.07;;;20.40;71.80;;;;;;5059054;28;20029;-71
2021/06/09 10:30:09;;;;;;;32.70;13.65;;;20.40;71.50;;;;;;5064193;28;20028;-70
2021/06/09 10:32:36;;;;;;;21.85;12.38;;;20.50;71.30;;;;;;5063886;28;20341;-70
2021/06/09 10:35:03;;;;;;;19.23;11.52;;;20.50;71.00;;;;;;5061572;28;20013;-70
2021/06/09 10:37:29;;;;;;;22.75;12.45;;;20.60;70.80;;;;;;5063166;28;20029;-71
2021/06/09 10:39:57;;;;;;;23.38;10.70;;;20.60;70.50;;;;;;5063397;28;20620;-70
2021/06/09 10:42:24;;;;;;;25.02;12.27;;;20.60;70.10;;;;;;5064582;28;20036;-71
2021/06/09 10:44:52;;;;;;;22.00;10.32;;;20.70;69.90;;;;;;5062616;28;20399;-71
2021/06/09 10:47:32;;;;;;;20.83;11.07;;;20.80;69.60;;;;;;5063068;28;20018;-71
2021/06/09 10:50:00;;;;;;;22.05;10.20;;;20.80;69.10;;;;;;5062670;28;20025;-71
2021/06/09 10:52:27;;;;;;;25.15;10.50;;;20.80;68.80;;;;;;5062953;28;20414;-70
2021/06/09 10:54:54;;;;;;;20.20;9.07;;;20.90;68.50;;;;;;5064784;28;20048;-71
2021/06/09 10:57:22;;;;;;;21.88;8.57;;;20.90;68.30;;;;;;5062792;28;20484;-71
2021/06/09 10:59:49;;;;;;;17.70;10.02;;;21.00;68.00;;;;;;5063913;28;20043;-71
2021/06/09 11:02:23;;;;;;;18.45;8.60;;;21.10;68.00;;;;;;5063560;28;20040;-70
2021/06/09 11:04:53;;;;;;;14.93;8.07;;;21.10;67.70;;;;;;5063972;28;20056;-70
2021/06/09 11:07:27;;;;;;;17.50;9.73;;;21.20;67.60;;;;;;5064777;28;20027;-70
2021/06/09 11:09:54;;;;;;;20.85;8.05;;;21.20;67.40;;;;;;5063832;28;20506;-71
2021/06/09 11:12:25;;;;;;;15.05;7.30;;;21.30;67.10;;;;;;5064382;28;20127;-70
2021/06/09 11:15:22;;;;;;;17.33;6.47;;;21.30;67.00;;;;;;5062014;28;20017;-71
2021/06/09 11:17:54;;;;;;;13.13;6.30;;;21.40;66.70;;;;;;5061874;28;20055;-70
2021/06/09 11:20:30;;;;;;;16.80;7.50;;;21.40;66.20;;;;;;5064228;28;20368;-71
2021/06/09 11:23:11;;;;;;;17.23;6.63;;;21.50;66.10;;;;;;5061927;28;20028;-71
2021/06/09 11:25:47;;;;;;;17.90;7.80;;;21.50;65.80;;;;;;5067384;28;20016;-71
2021/06/09 11:28:14;;;;;;;13.75;7.88;;;21.50;66.00;;;;;;5061129;28;20547;-82
2021/06/09 11:30:52;;;;;;;19.30;8.73;;;21.60;66.10;;;;;;5067383;28;20020;-72
2021/06/09 11:33:35;;;;;;;18.65;10.45;;;21.70;66.20;;;;;;5063624;28;20016;-75
2021/06/09 11:36:13;;;;;;;18.77;10.07;;;21.60;66.00;;;;;;5063136;28;20337;-73
2021/06/09 11:38:43;;;;;;;14.95;9.48;;;21.70;66.00;;;;;;5062146;28;20528;-74
2021/06/09 11:41:13;;;;;;;17.70;10.63;;;21.80;66.10;;;;;;5062719;28;20494;-71
2021/06/09 11:43:43;;;;;;;20.00;12.57;;;21.80;66.10;;;;;;5063039;28;20127;-76
2021/06/09 11:46:19;;;;;;;21.27;11.77;;;21.80;65.90;;;;;;5063226;28;20028;-72
2021/06/09 11:49:01;;;;;;;16.67;10.73;;;21.90;65.80;;;;;;5062566;28;20024;-71
2021/06/09 11:51:28;;;;;;;15.18;9.73;;;21.90;65.60;;;;;;5064672;28;20437;-73
2021/06/09 11:53:58;;;;;;;17.30;11.43;;;22.00;65.60;;;;;;5063110;28;20486;-73
2021/06/09 11:56:27;;;;;;;18.77;9.85;;;22.00;65.50;;;;;;5064364;28;20037;-72
2021/06/09 11:58:59;;;;;;;16.02;9.57;;;22.00;65.40;;;;;;5063495;28;20025;-72
2021/06/09 12:01:39;;;;;;;17.60;11.68;;;22.00;65.30;;;;;;5063123;28;20535;-73
2021/06/09 14:47:21;;;;;;;13.73;7.22;;;21.30;66.40;;;;;;6300890;22;747391;-76
2021/06/09 14:50:27;;;;;;;21.40;7.63;;;21.30;66.70;;;;;;6310196;22;20260;-75
2021/06/09 14:53:02;;;;;;;10.18;6.00;;;21.20;66.80;;;;;;6308387;22;20032;-77
2021/06/09 14:55:29;;;;;;;13.65;6.75;;;21.20;67.20;;;;;;6310671;22;20006;-81
2021/06/09 14:58:00;;;;;;;8.57;6.15;;;21.10;67.40;;;;;;6308858;22;20051;-77
2021/06/09 15:01:07;;;;;;;11.07;7.13;;;21.10;67.50;;;;;;6311912;22;20005;-82
2021/06/09 15:03:34;;;;;;;26.30;8.88;;;21.10;67.60;;;;;;6311269;22;20022;-79
2021/06/09 15:06:04;;;;;;;39.28;12.70;;;21.00;67.60;;;;;;6310574;22;20093;-78
2021/06/09 15:08:31;;;;;;;25.90;11.10;;;21.00;67.70;;;;;;6312028;22;19995;-79
2021/06/09 15:10:57;;;;;;;20.83;10.80;;;21.00;67.70;;;;;;6311054;22;20513;-79
2021/06/09 15:13:24;;;;;;;16.02;8.18;;;20.90;67.70;;;;;;6309785;22;20011;-76
2021/06/09 15:15:50;;;;;;;14.25;7.82;;;20.90;67.80;;;;;;6309628;22;20009;-75
2021/06/09 15:18:17;;;;;;;12.27;7.70;;;20.90;67.90;;;;;;6302237;22;19999;-77
2021/06/09 15:20:45;;;;;;;10.48;7.45;;;20.80;67.80;;;;;;6303075;22;20006;-78
2021/06/09 15:23:12;;;;;;;22.55;11.15;;;20.80;67.90;;;;;;6301515;22;19999;-72
2021/06/09 15:25:39;;;;;;;22.55;12.43;;;20.80;67.90;;;;;;6302263;22;19999;-74
2021/06/09 15:28:08;;;;;;;17.17;11.00;;;20.80;68.00;;;;;;6298069;22;20066;-75
2021/06/09 15:30:38;;;;;;;9.38;7.47;;;20.70;67.90;;;;;;6302218;22;20003;-74
2021/06/09 15:33:05;;;;;;;13.68;8.02;;;20.70;68.00;;;;;;6301417;22;20026;-74
2021/06/09 15:35:32;;;;;;;10.52;6.18;;;20.70;68.00;;;;;;6300063;22;19991;-76
2021/06/09 15:37:58;;;;;;;11.48;6.35;;;20.70;67.90;;;;;;6302389;22;20078;-81
2021/06/09 15:40:25;;;;;;;9.10;6.00;;;20.70;67.80;;;;;;6300081;22;20003;-77
2021/06/09 15:42:51;;;;;;;11.52;5.90;;;20.70;67.70;;;;;;6303823;22;20003;-75